Time;durP1;ratioP1;P1;durP2;ratioP2;P2;SDS_P1;SDS_P2;PMS_P1;PMS_P2;Temp;Humidity;BMP_temperature;BMP_pressure;BME280_temperature;BME280_humidity;BME280_pressure;Samples;Min_cycle;Max_cycle;Signal;HPM_P1;HPM_P2
2021/11/28 00:00:39;;;;;;;9.20;6.10;;;1.40;99.90;;;;;;5026324;28;20219;-81
2021/11/28 00:03:04;;;;;;;6.80;5.53;;;1.30;99.90;;;;;;5025427;28;20182;-80
2021/11/28 00:05:30;;;;;;;9.67;6.10;;;1.30;99.90;;;;;;5021649;28;20262;-80
2021/11/28 00:10:54;;;;;;;8.33;5.80;;;1.70;99.90;;;;;;5025721;28;20186;-81
2021/11/28 00:15:56;;;;;;;6.87;5.23;;;1.10;99.90;;;;;;5028094;28;20261;-81
2021/11/28 00:18:22;;;;;;;6.60;5.13;;;1.00;99.90;;;;;;5026234;28;20805;-81
2021/11/28 00:20:49;;;;;;;6.33;4.83;;;1.50;99.90;;;;;;5026034;28;20179;-81
2021/11/28 00:23:15;;;;;;;6.87;5.53;;;1.30;99.90;;;;;;5025708;28;20195;-81
2021/11/28 00:25:41;;;;;;;5.60;5.10;;;1.20;99.90;;;;;;5027504;28;20171;-81
2021/11/28 00:28:07;;;;;;;7.80;4.77;;;1.10;99.90;;;;;;5026643;28;20205;-81
2021/11/28 00:30:33;;;;;;;6.70;5.10;;;1.10;99.90;;;;;;5027147;28;20237;-81
2021/11/28 00:33:00;;;;;;;8.27;5.47;;;1.20;99.90;;;;;;5027049;28;20191;-80
2021/11/28 00:35:27;;;;;;;6.67;5.47;;;1.30;99.90;;;;;;5025838;28;20202;-81
2021/11/28 00:37:52;;;;;;;6.67;5.23;;;1.30;99.90;;;;;;5018834;28;20183;-81
2021/11/28 00:40:18;;;;;;;7.07;5.30;;;1.40;99.90;;;;;;5019284;28;20195;-82
2021/11/28 00:42:44;;;;;;;6.70;4.90;;;1.40;99.90;;;;;;5019699;28;20207;-81
2021/11/28 00:45:10;;;;;;;5.60;4.97;;;1.50;99.90;;;;;;5016971;28;20187;-79
2021/11/28 00:47:36;;;;;;;8.00;5.70;;;1.50;99.90;;;;;;5017947;28;20192;-79
2021/11/28 00:52:30;;;;;;;7.90;5.17;;;1.50;99.90;;;;;;5015760;28;20183;-80
2021/11/28 00:54:56;;;;;;;6.43;5.70;;;1.60;99.90;;;;;;5015155;28;20314;-79
2021/11/28 00:57:25;;;;;;;8.07;6.13;;;1.70;99.90;;;;;;5015733;28;20203;-79
2021/11/28 00:59:51;;;;;;;8.83;7.40;;;1.70;99.90;;;;;;5015607;28;20191;-79
2021/11/28 01:02:17;;;;;;;10.30;7.37;;;1.70;99.90;;;;;;5016930;28;20172;-79
2021/11/28 01:04:44;;;;;;;8.17;6.60;;;1.70;99.90;;;;;;5016024;28;20861;-80
2021/11/28 01:07:10;;;;;;;10.70;6.20;;;1.80;99.90;;;;;;5017868;28;20179;-80
2021/11/28 01:09:37;;;;;;;8.27;6.37;;;1.90;99.90;;;;;;5025228;28;20200;-81
2021/11/28 01:12:04;;;;;;;7.83;6.80;;;1.90;99.90;;;;;;5023897;28;20223;-79
2021/11/28 01:14:29;;;;;;;8.27;6.30;;;1.80;99.90;;;;;;5017999;28;20195;-80
2021/11/28 01:16:55;;;;;;;6.53;5.30;;;1.80;99.90;;;;;;5018556;28;20230;-79
2021/11/28 01:19:21;;;;;;;7.30;5.63;;;1.50;99.90;;;;;;5017192;28;20211;-79
2021/11/28 01:21:52;;;;;;;5.27;4.60;;;1.30;99.90;;;;;;5018477;28;20187;-80
2021/11/28 01:24:18;;;;;;;8.83;4.97;;;1.20;99.90;;;;;;5019701;28;20198;-80
2021/11/28 01:26:43;;;;;;;6.37;5.00;;;1.00;99.90;;;;;;5019629;28;20187;-80
2021/11/28 01:29:09;;;;;;;6.77;5.23;;;1.00;99.90;;;;;;5021404;28;20589;-79
2021/11/28 01:31:35;;;;;;;8.40;5.53;;;0.80;99.90;;;;;;5022218;28;20190;-80
2021/11/28 01:34:00;;;;;;;6.33;4.93;;;0.80;99.90;;;;;;5021789;28;20608;-80
2021/11/28 01:36:26;;;;;;;5.60;4.83;;;0.90;99.90;;;;;;5021885;28;20175;-79
2021/11/28 01:38:52;;;;;;;5.17;4.63;;;0.80;99.90;;;;;;5021541;28;20196;-80
2021/11/28 01:41:17;;;;;;;7.47;5.03;;;0.90;99.90;;;;;;5019059;28;20254;-79
2021/11/28 01:43:44;;;;;;;5.67;5.07;;;1.00;99.90;;;;;;5015391;28;20662;-80
2021/11/28 01:46:10;;;;;;;6.97;5.10;;;0.90;99.90;;;;;;5021780;28;20245;-80
2021/11/28 01:48:36;;;;;;;6.43;5.33;;;0.90;99.90;;;;;;5020914;28;20673;-79
2021/11/28 01:51:03;;;;;;;6.47;5.40;;;0.90;99.90;;;;;;5023846;28;20178;-80
2021/11/28 01:53:29;;;;;;;5.47;4.97;;;1.00;99.90;;;;;;5020173;28;20188;-79
2021/11/28 01:55:57;;;;;;;8.00;5.37;;;1.10;99.90;;;;;;5019890;28;20182;-80
2021/11/28 01:58:23;;;;;;;6.30;5.30;;;1.20;99.90;;;;;;5021266;28;20171;-80
2021/11/28 02:00:56;;;;;;;5.23;4.73;;;1.30;99.90;;;;;;5020989;28;20176;-80
2021/11/28 02:03:22;;;;;;;6.30;5.17;;;1.40;99.90;;;;;;5021566;28;20181;-79
2021/11/28 02:05:51;;;;;;;7.53;5.50;;;1.50;99.90;;;;;;5021445;28;20181;-80
2021/11/28 02:08:18;;;;;;;5.67;5.10;;;1.50;99.90;;;;;;5021463;28;20241;-82
2021/11/28 02:10:44;;;;;;;7.77;5.13;;;1.30;99.90;;;;;;5028570;28;20197;-81
2021/11/28 02:13:10;;;;;;;5.83;5.13;;;1.10;99.90;;;;;;5028773;28;20211;-79
2021/11/28 02:15:36;;;;;;;9.30;5.37;;;1.10;99.90;;;;;;5022136;28;20179;-80
2021/11/28 02:18:03;;;;;;;5.67;5.07;;;1.00;99.90;;;;;;5021503;28;20173;-80
2021/11/28 02:20:30;;;;;;;5.70;4.93;;;0.90;99.90;;;;;;5020190;28;20207;-80
2021/11/28 02:22:57;;;;;;;6.10;4.67;;;0.90;99.90;;;;;;5021048;28;20178;-80
2021/11/28 02:25:25;;;;;;;7.57;5.30;;;0.80;99.90;;;;;;5020455;28;20171;-80
2021/11/28 02:27:52;;;;;;;5.27;4.77;;;0.90;99.90;;;;;;5020477;28;20167;-80
2021/11/28 02:30:18;;;;;;;6.43;4.80;;;1.00;99.90;;;;;;5019100;28;20546;-80
2021/11/28 02:32:48;;;;;;;5.57;4.93;;;1.10;99.90;;;;;;5020148;28;20654;-80
2021/11/28 02:35:16;;;;;;;8.13;5.57;;;1.20;99.90;;;;;;5019084;28;20211;-80
2021/11/28 02:37:43;;;;;;;6.33;4.97;;;1.20;99.90;;;;;;5018812;28;20172;-80
2021/11/28 02:40:15;;;;;;;6.23;4.97;;;1.10;99.90;;;;;;5019471;28;20187;-80
2021/11/28 02:42:41;;;;;;;7.40;5.30;;;1.10;99.90;;;;;;5033034;28;20266;-80
2021/11/28 02:45:10;;;;;;;6.50;5.80;;;1.00;99.90;;;;;;5016389;28;20199;-78
2021/11/28 02:47:36;;;;;;;6.50;5.77;;;0.90;99.90;;;;;;5000907;28;20643;-80
2021/11/28 02:50:02;;;;;;;6.73;5.23;;;0.90;99.90;;;;;;5002515;28;20196;-80
2021/11/28 02:52:28;;;;;;;6.10;4.73;;;0.90;99.90;;;;;;5001725;28;20178;-80
2021/11/28 02:54:54;;;;;;;9.83;5.83;;;0.90;99.90;;;;;;5002743;28;20195;-80
2021/11/28 02:57:20;;;;;;;7.33;4.97;;;0.90;99.90;;;;;;5000351;28;20168;-80
2021/11/28 02:59:45;;;;;;;7.20;5.50;;;0.90;99.90;;;;;;5001491;28;20207;-80
2021/11/28 03:02:11;;;;;;;7.53;5.60;;;1.10;99.90;;;;;;5000220;28;20178;-80
2021/11/28 03:04:37;;;;;;;7.73;5.17;;;1.10;99.90;;;;;;5000525;28;20238;-80
2021/11/28 03:07:03;;;;;;;6.40;5.20;;;1.20;99.90;;;;;;5002502;28;20171;-80
2021/11/28 03:09:28;;;;;;;7.87;5.70;;;1.30;99.90;;;;;;5001577;28;20592;-80
2021/11/28 03:11:55;;;;;;;7.80;5.73;;;1.30;99.90;;;;;;5018050;28;20171;-80
2021/11/28 03:14:20;;;;;;;15.80;9.80;;;1.40;99.90;;;;;;5000196;28;20201;-80
2021/11/28 03:16:46;;;;;;;15.80;9.97;;;1.40;99.90;;;;;;5015730;28;20191;-80
2021/11/28 03:19:12;;;;;;;14.20;8.93;;;1.40;99.90;;;;;;4999867;28;20215;-80
2021/11/28 03:21:38;;;;;;;7.20;6.33;;;1.50;99.90;;;;;;4999633;28;20242;-80
2021/11/28 03:24:05;;;;;;;7.80;7.00;;;1.40;99.90;;;;;;5003763;28;20167;-80
2021/11/28 03:26:37;;;;;;;7.30;5.87;;;1.40;99.90;;;;;;5008558;28;20180;-80
2021/11/28 03:29:09;;;;;;;5.93;5.40;;;1.40;99.90;;;;;;5006960;28;20313;-80
2021/11/28 03:31:43;;;;;;;6.10;5.47;;;1.30;99.90;;;;;;5000217;28;20651;-80
2021/11/28 03:34:10;;;;;;;6.97;6.00;;;1.20;99.90;;;;;;4999175;28;20184;-80
2021/11/28 03:36:43;;;;;;;7.53;5.40;;;1.30;99.90;;;;;;4999473;28;20183;-80
2021/11/28 03:39:12;;;;;;;10.47;5.70;;;1.30;99.90;;;;;;5001375;28;20195;-80
2021/11/28 03:41:38;;;;;;;9.07;6.70;;;1.10;99.90;;;;;;5018807;28;20536;-80
2021/11/28 03:44:06;;;;;;;6.30;5.70;;;1.10;99.90;;;;;;5017049;28;20190;-80
2021/11/28 03:46:33;;;;;;;5.40;4.50;;;1.00;99.90;;;;;;5019651;28;20721;-80
2021/11/28 03:49:00;;;;;;;6.37;5.10;;;0.80;99.90;;;;;;5018015;28;20286;-79
2021/11/28 03:51:27;;;;;;;6.87;5.10;;;0.80;99.90;;;;;;5013147;28;20171;-79
2021/11/28 03:53:52;;;;;;;8.67;5.77;;;1.00;99.90;;;;;;5015289;28;20206;-80
2021/11/28 03:56:18;;;;;;;12.80;8.10;;;0.80;99.90;;;;;;5018609;28;20168;-80
2021/11/28 03:58:44;;;;;;;7.73;6.27;;;0.70;99.90;;;;;;5020366;28;20207;-80
2021/11/28 04:01:13;;;;;;;7.73;6.43;;;0.70;99.90;;;;;;5034163;28;20556;-80
2021/11/28 04:03:39;;;;;;;16.30;9.87;;;1.00;99.90;;;;;;5019109;28;20171;-80
2021/11/28 04:06:06;;;;;;;13.93;8.90;;;0.90;99.90;;;;;;5018778;28;20179;-80
2021/11/28 04:08:32;;;;;;;7.03;6.07;;;1.00;99.90;;;;;;5019275;28;20661;-80
2021/11/28 04:10:57;;;;;;;10.67;7.00;;;1.10;99.90;;;;;;5019081;28;20175;-80
2021/11/28 04:13:23;;;;;;;6.37;5.17;;;1.40;99.90;;;;;;5018816;28;20355;-80
2021/11/28 04:15:49;;;;;;;8.93;6.10;;;1.20;99.90;;;;;;5018692;28;20211;-80
2021/11/28 04:18:14;;;;;;;5.70;5.10;;;1.30;99.90;;;;;;5018252;28;20197;-80
2021/11/28 04:20:42;;;;;;;4.93;4.43;;;1.30;99.90;;;;;;5009724;28;20254;-78
2021/11/28 04:23:08;;;;;;;5.30;4.07;;;1.40;99.90;;;;;;5018013;28;20174;-79
2021/11/28 04:25:33;;;;;;;6.07;4.10;;;1.40;99.90;;;;;;5018366;28;20180;-79
2021/11/28 04:27:59;;;;;;;6.57;4.30;;;1.40;99.90;;;;;;5016859;28;20172;-81
2021/11/28 04:30:26;;;;;;;5.23;4.10;;;1.30;99.90;;;;;;5018631;28;20200;-78
2021/11/28 04:32:52;;;;;;;5.70;4.73;;;1.10;99.90;;;;;;5019048;28;20178;-79
2021/11/28 04:35:18;;;;;;;5.93;5.30;;;1.00;99.90;;;;;;5018156;28;20167;-79
2021/11/28 04:37:44;;;;;;;5.30;4.90;;;0.80;99.90;;;;;;5016562;28;20179;-79
2021/11/28 04:40:10;;;;;;;5.03;4.53;;;1.10;99.90;;;;;;5018786;28;20276;-79
2021/11/28 04:42:36;;;;;;;6.40;5.00;;;0.80;99.90;;;;;;5019567;28;20513;-80
2021/11/28 04:45:03;;;;;;;5.77;4.60;;;0.90;99.90;;;;;;5018889;28;20171;-80
2021/11/28 04:47:29;;;;;;;5.33;4.83;;;0.90;99.90;;;;;;5017487;28;20266;-80
2021/11/28 04:49:55;;;;;;;5.23;4.60;;;0.90;99.90;;;;;;5017554;28;20227;-80
2021/11/28 04:52:20;;;;;;;5.60;4.57;;;0.80;99.90;;;;;;5017898;28;20182;-80
2021/11/28 04:54:46;;;;;;;6.67;5.20;;;0.90;99.90;;;;;;5017480;28;20191;-80
2021/11/28 04:57:12;;;;;;;5.53;4.93;;;0.90;99.90;;;;;;5018134;28;20213;-80
2021/11/28 04:59:38;;;;;;;7.33;5.33;;;0.80;99.90;;;;;;5017382;28;20231;-80
2021/11/28 05:02:04;;;;;;;5.70;5.13;;;0.70;99.90;;;;;;5017513;28;20704;-80
2021/11/28 05:04:30;;;;;;;7.80;5.33;;;0.70;99.90;;;;;;5017429;28;20183;-80
2021/11/28 05:06:55;;;;;;;6.43;5.37;;;0.70;99.90;;;;;;5016633;28;20201;-80
2021/11/28 05:09:21;;;;;;;5.63;5.13;;;0.70;99.90;;;;;;5021745;28;20202;-79
2021/11/28 05:11:47;;;;;;;5.70;5.13;;;0.70;99.90;;;;;;5020917;28;20241;-80
2021/11/28 05:14:13;;;;;;;6.10;5.47;;;0.80;99.90;;;;;;5021397;28;20187;-80
2021/11/28 05:16:39;;;;;;;5.87;5.27;;;0.80;99.90;;;;;;5021615;28;20178;-81
2021/11/28 05:19:04;;;;;;;6.13;5.53;;;0.90;99.90;;;;;;5021210;28;20229;-81
2021/11/28 05:21:30;;;;;;;7.20;5.73;;;0.80;99.90;;;;;;5048803;22;20233;-76
2021/11/28 05:23:56;;;;;;;7.80;6.37;;;0.80;99.90;;;;;;5035813;28;20549;-75
2021/11/28 05:26:22;;;;;;;7.03;6.23;;;0.90;99.90;;;;;;5035955;28;20249;-76
2021/11/28 05:28:48;;;;;;;6.77;6.07;;;0.90;99.90;;;;;;5035855;28;20320;-75
2021/11/28 05:31:17;;;;;;;10.33;6.37;;;1.10;99.90;;;;;;5030680;28;20649;-76
2021/11/28 05:33:48;;;;;;;7.00;6.30;;;1.20;99.90;;;;;;5016149;28;20199;-76
2021/11/28 05:36:15;;;;;;;7.03;6.40;;;1.20;99.90;;;;;;5015864;28;20176;-76
2021/11/28 05:38:41;;;;;;;8.27;7.40;;;1.30;99.90;;;;;;5016043;28;20276;-75
2021/11/28 05:41:08;;;;;;;7.70;7.00;;;1.20;99.90;;;;;;5014513;28;20199;-76
2021/11/28 05:43:37;;;;;;;7.57;6.87;;;1.20;99.90;;;;;;5014734;28;20681;-76
2021/11/28 05:46:03;;;;;;;8.20;6.97;;;1.30;99.90;;;;;;5016021;28;20178;-76
2021/11/28 05:48:29;;;;;;;7.20;6.60;;;1.30;99.90;;;;;;5014434;28;20598;-76
2021/11/28 05:50:55;;;;;;;7.30;6.70;;;1.40;99.90;;;;;;5016775;28;20210;-76
2021/11/28 05:53:22;;;;;;;5.40;5.00;;;1.40;99.90;;;;;;5017181;28;20187;-76
2021/11/28 05:55:48;;;;;;;5.97;5.43;;;1.30;99.90;;;;;;5015591;28;20202;-76
2021/11/28 05:58:14;;;;;;;6.47;5.40;;;1.20;99.90;;;;;;5018231;28;20175;-76
2021/11/28 06:00:40;;;;;;;8.50;7.70;;;1.00;99.90;;;;;;5015616;28;20191;-76
2021/11/28 06:03:06;;;;;;;6.93;6.23;;;1.00;99.90;;;;;;5015741;28;20575;-76
2021/11/28 06:05:31;;;;;;;6.97;5.90;;;0.90;99.90;;;;;;5015523;28;20259;-76
2021/11/28 06:07:57;;;;;;;5.13;4.70;;;0.70;99.90;;;;;;5015573;28;20179;-76
2021/11/28 06:10:23;;;;;;;6.23;5.03;;;0.70;99.90;;;;;;5015432;28;20262;-75
2021/11/28 06:12:48;;;;;;;5.20;4.70;;;0.50;99.90;;;;;;5014859;28;20206;-76
2021/11/28 06:15:14;;;;;;;5.90;5.30;;;0.40;99.90;;;;;;5015451;28;20175;-76
2021/11/28 06:17:40;;;;;;;9.70;5.47;;;0.30;99.90;;;;;;5014107;28;20171;-76
2021/11/28 06:20:07;;;;;;;6.33;5.73;;;0.20;99.90;;;;;;5015428;28;20177;-76
2021/11/28 06:22:34;;;;;;;6.40;5.73;;;0.20;99.90;;;;;;5014994;28;20279;-76
2021/11/28 06:25:00;;;;;;;6.17;5.50;;;0.20;99.90;;;;;;5015098;28;20195;-76
2021/11/28 06:27:25;;;;;;;6.90;6.00;;;0.40;99.90;;;;;;5015050;28;20246;-76
2021/11/28 06:29:51;;;;;;;6.33;5.73;;;0.30;99.90;;;;;;5015046;28;20199;-74
2021/11/28 06:32:17;;;;;;;6.73;5.77;;;0.40;99.90;;;;;;5012808;28;20564;-76
2021/11/28 06:34:44;;;;;;;8.00;7.20;;;0.50;99.90;;;;;;5010657;28;20179;-76
2021/11/28 06:37:10;;;;;;;7.50;6.67;;;0.60;99.90;;;;;;5014859;28;20175;-76
2021/11/28 06:39:36;;;;;;;7.03;6.33;;;0.70;99.90;;;;;;5014926;28;20176;-76
2021/11/28 06:42:03;;;;;;;6.57;5.87;;;0.70;99.90;;;;;;5014633;28;20226;-76
2021/11/28 06:44:28;;;;;;;8.53;6.43;;;0.80;99.90;;;;;;5014802;28;20237;-76
2021/11/28 06:46:54;;;;;;;9.23;7.40;;;0.80;99.90;;;;;;5013585;28;20198;-76
2021/11/28 06:49:20;;;;;;;7.80;7.13;;;1.00;99.90;;;;;;5014420;28;20650;-76
2021/11/28 06:51:45;;;;;;;7.80;7.10;;;1.00;99.90;;;;;;5013330;28;20201;-75
2021/11/28 06:54:11;;;;;;;8.63;7.73;;;1.10;99.90;;;;;;5014478;28;20175;-76
2021/11/28 06:56:37;;;;;;;7.87;7.17;;;1.10;99.90;;;;;;5014862;28;20539;-76
2021/11/28 06:59:03;;;;;;;7.53;6.83;;;1.10;99.90;;;;;;5014530;28;20261;-75
2021/11/28 07:01:28;;;;;;;8.00;7.30;;;1.10;99.90;;;;;;5014402;28;20281;-76
2021/11/28 07:03:54;;;;;;;7.60;6.83;;;0.90;99.90;;;;;;5013194;28;20195;-76
2021/11/28 07:06:20;;;;;;;8.47;7.67;;;0.90;99.90;;;;;;5014329;28;20176;-76
2021/11/28 07:08:45;;;;;;;8.07;7.37;;;0.90;99.90;;;;;;5014374;28;20257;-76
2021/11/28 07:11:11;;;;;;;9.23;7.80;;;0.90;99.90;;;;;;5013487;28;20553;-76
2021/11/28 07:13:37;;;;;;;10.27;7.60;;;0.90;99.90;;;;;;5014248;28;20183;-75
2021/11/28 07:16:02;;;;;;;8.90;7.10;;;0.80;99.90;;;;;;5012989;28;20186;-76
2021/11/28 07:18:28;;;;;;;11.47;9.67;;;0.70;99.90;;;;;;5014045;28;20203;-76
2021/11/28 07:20:54;;;;;;;8.87;7.97;;;0.70;99.90;;;;;;5011623;28;20550;-76
2021/11/28 07:23:19;;;;;;;8.77;7.60;;;0.60;99.90;;;;;;5012762;28;20193;-76
2021/11/28 07:25:45;;;;;;;10.43;9.33;;;0.60;99.90;;;;;;5012279;28;20167;-76
2021/11/28 07:28:10;;;;;;;11.80;10.37;;;0.60;99.90;;;;;;5012793;28;20177;-75
2021/11/28 07:30:36;;;;;;;12.70;11.10;;;0.70;99.90;;;;;;5013839;28;20258;-76
2021/11/28 07:33:02;;;;;;;12.60;11.27;;;0.70;99.90;;;;;;5014421;28;20693;-76
2021/11/28 07:35:27;;;;;;;14.63;12.03;;;0.70;99.90;;;;;;5012623;28;20178;-77
2021/11/28 07:37:53;;;;;;;21.30;16.27;;;0.70;99.90;;;;;;5011230;28;20167;-76
2021/11/28 07:40:19;;;;;;;21.37;15.60;;;0.70;99.90;;;;;;5009299;28;20223;-77
2021/11/28 07:42:45;;;;;;;21.47;16.67;;;0.80;99.90;;;;;;5013654;28;20282;-76
2021/11/28 07:45:11;;;;;;;16.30;13.00;;;0.80;99.90;;;;;;5012384;28;20575;-76
2021/11/28 07:47:37;;;;;;;14.73;13.17;;;0.90;99.90;;;;;;5012388;28;20178;-76
2021/11/28 07:50:04;;;;;;;16.27;12.57;;;1.00;99.90;;;;;;5013727;28;20201;-75
2021/11/28 07:52:30;;;;;;;13.37;11.97;;;1.10;99.90;;;;;;5013057;28;20195;-77
2021/11/28 07:54:55;;;;;;;14.40;11.17;;;1.10;99.90;;;;;;5013362;28;20237;-76
2021/11/28 07:57:21;;;;;;;13.47;11.57;;;1.00;99.90;;;;;;5011991;28;20194;-77
2021/11/28 07:59:47;;;;;;;12.47;10.73;;;1.10;99.90;;;;;;5013510;28;20176;-76
2021/11/28 08:02:15;;;;;;;11.60;10.47;;;1.20;99.90;;;;;;5013516;28;20681;-76
2021/11/28 08:04:42;;;;;;;11.70;10.60;;;1.30;99.90;;;;;;5011013;28;20206;-76
2021/11/28 08:07:08;;;;;;;10.70;9.80;;;1.30;99.90;;;;;;5024359;28;20350;-76
2021/11/28 08:09:34;;;;;;;12.17;10.87;;;1.30;99.90;;;;;;5016208;28;20194;-76
2021/11/28 08:11:59;;;;;;;12.57;10.80;;;1.40;99.90;;;;;;5013515;28;20197;-76
2021/11/28 08:14:25;;;;;;;14.80;10.60;;;1.50;99.90;;;;;;5013131;28;20182;-77
2021/11/28 08:16:51;;;;;;;13.67;10.97;;;1.60;99.90;;;;;;5013396;28;20214;-76
2021/11/28 08:19:16;;;;;;;11.67;10.00;;;1.60;99.90;;;;;;5013419;28;20175;-76
2021/11/28 08:21:42;;;;;;;11.60;10.40;;;1.60;99.90;;;;;;5011724;28;20562;-76
2021/11/28 08:24:08;;;;;;;11.73;10.53;;;1.60;99.90;;;;;;5013165;28;20681;-76
2021/11/28 08:26:36;;;;;;;11.03;10.03;;;1.60;99.90;;;;;;5013170;28;20210;-76
2021/11/28 08:29:04;;;;;;;11.83;10.10;;;1.70;99.90;;;;;;5012372;28;20167;-76
2021/11/28 08:31:31;;;;;;;11.90;10.70;;;1.70;99.90;;;;;;5011777;28;20200;-76
2021/11/28 08:33:57;;;;;;;13.60;11.57;;;1.70;99.90;;;;;;5013188;28;20557;-75
2021/11/28 08:36:23;;;;;;;14.37;11.37;;;1.70;99.90;;;;;;5015120;28;20189;-76
2021/11/28 08:38:50;;;;;;;13.10;11.77;;;1.70;99.90;;;;;;5017122;28;20184;-75
2021/11/28 08:41:20;;;;;;;12.47;10.23;;;1.80;99.90;;;;;;5017030;28;20226;-76
2021/11/28 08:43:45;;;;;;;11.63;10.43;;;1.80;99.90;;;;;;5016871;28;20191;-76
2021/11/28 08:46:11;;;;;;;12.50;11.20;;;1.90;99.90;;;;;;5013701;28;20242;-76
2021/11/28 08:48:37;;;;;;;11.77;10.23;;;1.90;99.90;;;;;;5017013;28;20183;-76
2021/11/28 08:51:03;;;;;;;13.60;10.73;;;2.00;99.90;;;;;;5016547;28;20225;-77
2021/11/28 08:53:29;;;;;;;14.00;10.83;;;2.00;99.90;;;;;;5014206;28;20175;-76
2021/11/28 08:55:55;;;;;;;10.97;9.73;;;2.00;99.90;;;;;;5012571;28;20176;-76
2021/11/28 08:58:21;;;;;;;10.87;9.70;;;2.00;99.90;;;;;;5013262;28;20175;-76
2021/11/28 09:00:47;;;;;;;11.20;10.07;;;2.20;99.90;;;;;;5015243;28;20241;-76
2021/11/28 09:03:13;;;;;;;11.43;9.73;;;2.10;99.90;;;;;;5013115;28;20198;-77
2021/11/28 09:05:40;;;;;;;11.67;9.63;;;2.30;99.90;;;;;;5013269;28;20179;-77
2021/11/28 09:08:06;;;;;;;11.43;10.10;;;2.10;99.90;;;;;;5014236;28;20175;-76
2021/11/28 09:10:32;;;;;;;10.27;8.57;;;2.20;99.90;;;;;;5015472;28;20167;-77
2021/11/28 09:12:59;;;;;;;10.53;9.37;;;2.30;99.90;;;;;;5015356;28;20196;-77
2021/11/28 09:15:26;;;;;;;10.30;9.30;;;2.30;99.90;;;;;;5014034;28;20685;-77
2021/11/28 09:17:57;;;;;;;9.50;8.60;;;2.30;99.90;;;;;;5014397;28;20181;-78
2021/11/28 09:20:24;;;;;;;7.53;6.73;;;2.40;99.90;;;;;;5015371;28;20680;-77
2021/11/28 09:25:18;;;;;;;8.40;7.53;;;2.60;99.90;;;;;;5015364;28;20171;-77
2021/11/28 09:27:49;;;;;;;9.90;8.93;;;2.60;99.90;;;;;;5014325;28;20266;-77
2021/11/28 09:30:17;;;;;;;6.87;6.20;;;2.60;99.90;;;;;;5014471;28;20181;-76
2021/11/28 09:32:43;;;;;;;7.13;6.53;;;2.70;99.90;;;;;;5011258;28;20238;-76
2021/11/28 09:35:09;;;;;;;7.03;6.27;;;2.70;99.90;;;;;;5016130;28;20180;-77
2021/11/28 09:37:34;;;;;;;7.07;6.17;;;2.70;99.90;;;;;;5014820;28;20283;-77
2021/11/28 09:40:01;;;;;;;6.97;5.90;;;2.70;99.90;;;;;;5015075;28;20170;-77
2021/11/28 09:42:40;;;;;;;8.83;6.67;;;2.70;99.90;;;;;;5016791;28;20222;-77
2021/11/28 09:45:07;;;;;;;6.00;5.50;;;2.70;99.90;;;;;;5008462;28;20571;-77
2021/11/28 09:47:34;;;;;;;7.87;6.47;;;2.80;99.90;;;;;;5015024;28;20176;-77
2021/11/28 09:50:04;;;;;;;7.37;6.33;;;2.80;99.90;;;;;;5015469;28;20178;-77
2021/11/28 09:52:31;;;;;;;6.77;6.17;;;2.80;99.90;;;;;;5015936;28;20199;-76
2021/11/28 09:55:00;;;;;;;5.97;5.10;;;2.90;99.90;;;;;;5012535;28;20194;-77
2021/11/28 09:57:27;;;;;;;6.30;5.23;;;2.90;99.90;;;;;;5012496;28;20171;-78
2021/11/28 09:59:54;;;;;;;6.93;5.10;;;2.90;99.90;;;;;;5018669;28;20171;-78
2021/11/28 10:02:23;;;;;;;5.90;5.40;;;2.90;99.90;;;;;;5012587;28;20211;-78
2021/11/28 10:04:49;;;;;;;5.30;4.80;;;3.00;99.90;;;;;;5015277;28;20211;-78
2021/11/28 10:07:16;;;;;;;6.63;5.27;;;3.00;99.90;;;;;;5015457;28;20317;-78
2021/11/28 10:09:42;;;;;;;7.77;5.40;;;3.10;99.90;;;;;;5015438;28;20168;-77
2021/11/28 10:12:18;;;;;;;6.27;5.10;;;3.20;99.90;;;;;;5024496;28;20200;-77
2021/11/28 10:14:47;;;;;;;5.13;4.60;;;3.30;99.90;;;;;;5019106;28;20175;-76
2021/11/28 10:17:15;;;;;;;5.13;4.60;;;3.30;99.90;;;;;;5015405;28;20181;-76
2021/11/28 10:19:41;;;;;;;5.27;4.07;;;3.40;99.90;;;;;;5016522;28;20175;-77
2021/11/28 10:22:07;;;;;;;4.70;3.97;;;3.40;99.90;;;;;;5035272;28;20284;-76
2021/11/28 10:24:32;;;;;;;4.67;4.27;;;3.50;99.90;;;;;;5024850;28;20200;-76
2021/11/28 10:27:08;;;;;;;4.67;4.27;;;3.50;99.90;;;;;;5019713;28;20171;-76
2021/11/28 10:29:38;;;;;;;4.17;3.60;;;3.60;99.90;;;;;;5017135;28;20194;-77
2021/11/28 10:32:05;;;;;;;4.43;3.73;;;3.60;99.90;;;;;;5013857;28;20196;-76
2021/11/28 10:34:37;;;;;;;4.37;3.97;;;3.70;99.90;;;;;;5014236;28;20178;-77
2021/11/28 10:37:09;;;;;;;4.07;3.50;;;3.70;99.90;;;;;;5013952;28;20678;-76
2021/11/28 10:40:07;;;;;;;4.20;3.80;;;3.70;99.90;;;;;;5015036;28;20190;-77
2021/11/28 10:42:35;;;;;;;7.10;3.90;;;3.70;99.90;;;;;;4991370;28;20207;-78
2021/11/28 10:45:10;;;;;;;5.80;4.67;;;3.70;99.90;;;;;;5015273;28;20202;-78
2021/11/28 10:47:47;;;;;;;4.73;3.90;;;3.60;99.90;;;;;;5015387;28;20198;-78
2021/11/28 10:50:28;;;;;;;6.50;4.30;;;3.50;99.90;;;;;;5013931;28;20656;-77
2021/11/28 10:53:09;;;;;;;4.47;3.70;;;3.50;99.90;;;;;;5014672;28;20196;-78
2021/11/28 10:55:39;;;;;;;3.90;3.60;;;3.60;99.90;;;;;;5012998;28;20184;-78
2021/11/28 10:58:12;;;;;;;4.87;3.53;;;3.80;99.90;;;;;;5009813;28;20172;-79
2021/11/28 11:01:08;;;;;;;3.60;3.30;;;3.70;99.90;;;;;;5013117;28;20184;-78
2021/11/28 11:03:39;;;;;;;4.27;3.27;;;3.70;99.90;;;;;;5014721;28;20703;-78
2021/11/28 11:06:19;;;;;;;3.73;3.43;;;3.60;99.90;;;;;;5013282;28;20660;-77
2021/11/28 11:08:47;;;;;;;3.73;3.43;;;3.80;99.90;;;;;;5013154;28;20194;-76
2021/11/28 11:11:15;;;;;;;4.00;3.60;;;3.80;99.90;;;;;;5012961;28;20205;-76
2021/11/28 11:13:57;;;;;;;3.93;3.37;;;3.90;99.90;;;;;;5013068;28;20718;-77
2021/11/28 11:16:35;;;;;;;4.40;3.70;;;3.90;99.90;;;;;;5014408;28;20656;-77
2021/11/28 11:19:27;;;;;;;3.57;3.27;;;3.90;99.90;;;;;;5013392;28;20180;-77
2021/11/28 11:22:18;;;;;;;4.47;4.07;;;3.90;99.90;;;;;;5014322;28;20708;-77
2021/11/28 11:24:51;;;;;;;5.37;3.83;;;3.90;99.90;;;;;;5049756;23;20239;-80
2021/11/28 11:27:20;;;;;;;3.53;3.23;;;3.90;99.90;;;;;;5040742;28;20167;-78
2021/11/28 11:29:50;;;;;;;3.80;3.20;;;3.70;99.90;;;;;;5037598;28;20171;-81
2021/11/28 11:32:18;;;;;;;3.00;2.70;;;3.80;99.90;;;;;;5036397;28;20162;-78
2021/11/28 11:34:58;;;;;;;3.97;2.67;;;3.90;99.90;;;;;;5030519;28;20223;-78
2021/11/28 11:37:26;;;;;;;3.47;3.00;;;4.00;99.90;;;;;;5016023;28;20214;-78
2021/11/28 11:39:56;;;;;;;4.07;3.40;;;3.90;99.90;;;;;;5015700;28;20181;-78
2021/11/28 11:42:25;;;;;;;3.40;2.40;;;4.00;99.90;;;;;;5015865;28;20673;-79
2021/11/28 11:44:51;;;;;;;3.17;2.87;;;3.90;99.90;;;;;;5016091;28;20212;-79
2021/11/28 11:47:19;;;;;;;3.67;3.00;;;4.00;99.90;;;;;;5015830;28;20531;-79
2021/11/28 11:49:45;;;;;;;5.77;3.33;;;4.00;99.90;;;;;;5014183;28;20195;-78
2021/11/28 11:52:12;;;;;;;2.90;2.47;;;4.00;99.90;;;;;;5016078;28;20172;-79
2021/11/28 11:54:45;;;;;;;3.40;3.10;;;4.00;99.90;;;;;;5015595;28;20294;-79
2021/11/28 11:57:34;;;;;;;3.27;2.90;;;4.20;99.90;;;;;;5016245;28;20255;-77
2021/11/28 12:00:13;;;;;;;3.03;2.67;;;4.10;99.90;;;;;;5014716;28;20238;-78
2021/11/28 12:02:41;;;;;;;2.93;2.73;;;4.10;99.90;;;;;;5019356;28;20176;-79
2021/11/28 12:05:25;;;;;;;2.93;2.50;;;4.20;99.90;;;;;;5015577;28;20246;-78
2021/11/28 12:07:55;;;;;;;3.63;3.33;;;4.00;99.90;;;;;;5015111;28;20163;-79
2021/11/28 12:10:32;;;;;;;4.20;3.00;;;4.00;99.90;;;;;;5015186;28;20204;-79
2021/11/28 12:13:01;;;;;;;2.90;2.10;;;4.00;99.90;;;;;;5015765;28;20171;-77
2021/11/28 12:15:35;;;;;;;3.87;2.67;;;3.90;99.90;;;;;;5015193;28;20202;-77
2021/11/28 12:18:02;;;;;;;4.23;3.03;;;3.80;99.90;;;;;;5015757;28;20251;-78
2021/11/28 12:20:43;;;;;;;2.70;2.43;;;3.70;99.90;;;;;;5015597;28;20215;-79
2021/11/28 12:23:10;;;;;;;2.33;2.13;;;3.80;99.90;;;;;;5014009;28;20683;-79
2021/11/28 12:25:40;;;;;;;3.60;3.20;;;3.80;99.90;;;;;;5015301;28;20579;-78
2021/11/28 12:28:21;;;;;;;2.80;2.60;;;3.90;99.90;;;;;;5015173;28;20171;-79
2021/11/28 12:30:53;;;;;;;3.80;2.40;;;3.90;99.90;;;;;;5016179;28;20180;-79
2021/11/28 12:33:19;;;;;;;3.10;2.80;;;3.90;99.90;;;;;;5015203;28;20733;-78
2021/11/28 12:35:45;;;;;;;3.00;2.30;;;3.90;99.90;;;;;;5014286;28;20672;-78
2021/11/28 12:38:11;;;;;;;5.17;2.73;;;3.90;99.90;;;;;;5014819;28;20180;-79
2021/11/28 12:40:45;;;;;;;2.73;2.53;;;3.80;99.90;;;;;;5014950;28;20547;-78
2021/11/28 12:43:20;;;;;;;2.80;2.60;;;3.80;99.90;;;;;;5015379;28;20184;-79
2021/11/28 12:45:47;;;;;;;2.80;2.60;;;3.90;99.90;;;;;;5015273;28;20198;-78
2021/11/28 12:48:22;;;;;;;2.60;2.40;;;4.00;99.90;;;;;;5013771;28;20179;-79
2021/11/28 12:50:51;;;;;;;3.80;2.70;;;4.20;99.90;;;;;;5015070;28;20540;-78
2021/11/28 12:53:29;;;;;;;3.60;2.97;;;3.90;99.90;;;;;;5013777;28;20254;-78
2021/11/28 12:56:10;;;;;;;2.93;2.50;;;3.90;99.90;;;;;;5030060;28;20191;-78
2021/11/28 12:58:36;;;;;;;2.80;2.50;;;3.90;99.90;;;;;;5013400;28;20552;-79
2021/11/28 13:01:02;;;;;;;3.10;2.43;;;4.00;99.90;;;;;;5014523;28;20176;-78
2021/11/28 13:03:27;;;;;;;2.77;2.30;;;4.00;99.90;;;;;;5013851;28;20194;-79
2021/11/28 13:05:55;;;;;;;2.23;2.03;;;4.00;99.90;;;;;;5015091;28;20197;-79